Loxahatchee, FL

6:27 PM EST on February 20, 2017 (GMT -0500)
Indigo Weather | | Change Station

Elev 23 ft 26.67 °N, 80.26 °W | Updated 12 minutes ago

Partly Cloudy
Partly Cloudy
74.0 °F
Feels Like 77 °F
N
0.0
Wind Variable Wind from ESE
Gusts 3.0 mph

Today
High -- | Low -- °F
--% Chance of Precip.
Yesterday
High -- | Low -- °F
Precip. -- in
Pressure 30.09 in
Visibility 10.0 miles
Clouds Scattered Clouds 3600 ft
Scattered Clouds 25000 ft
Heat Index 77 °F
Dew Point 53 °F
Humidity 48%
Rainfall 0.00 in
Snow Depth Not available.
6:52 AM 6:17 PM
Waning Crescent, 30% visible
METAR KPBI 202253Z 06010KT 10SM SCT036 SCT250 24/14 A3009 RMK AO2 SLP190 T02390144 $
Pressure 30.09 in
Visibility 10.0 miles
Clouds Scattered Clouds 3600 ft
Scattered Clouds 25000 ft
Heat Index 77 °F
Dew Point 53 °F
Humidity 48%
Rainfall 0.00 in
Snow Depth Not available.
6:52 AM 6:17 PM
Waning Crescent, 30% visible
METAR KPBI 202253Z 06010KT 10SM SCT036 SCT250 24/14 A3009 RMK AO2 SLP190 T02390144 $

Get Your Daily Forecast Email!

Thanks for signing up!

Be on the lookout for a verification email in your inbox.

You'll start receiving the daily forecast at 8 AM.

×

10-Day Weather Forecast

Almanac

Astronomy

Feb. 20, 2017 Rise Set
Actual Time
Civil Twilight
Nautical Twilight
Astronomical Twilight
Moon
Length of Visible Light
Length of Day
Tomorrow will be .
, % of the Moon is Illuminated

Today's Extremes

State Highs State Lows

Community

WunderPhotos

Upload Photos

1,962,540 photos uploaded!

WunderBlog® & News

Nearby

Air Quality

  Air Quality AQ Index Pollutant
Not available.

Snow Depth

Station Depth Elevation

Earthquake Activity

City Distance Mag. Time & Date
Minimum magnitude displayed is 2.5.

Coastal Water Temperatures

Place Temperature

Stations

Nearby Weather Stations

Station Location Temp. Windchill Dew Point Humidity Wind Precip. Elev Updated Type
                   

Watches & Warnings

There are currently no watches in effect.